createdAt,value
2022-11-19T00:00:05.329Z,101290.50
2022-11-19T00:03:09.863Z,101298.47
2022-11-19T00:06:14.303Z,101291.41
2022-11-19T00:09:17.385Z,101290.53
2022-11-19T00:12:38.080Z,101279.00
2022-11-19T00:15:41.846Z,101285.19
2022-11-19T00:18:46.216Z,101288.75
2022-11-19T00:21:50.217Z,101282.53
2022-11-19T00:24:53.159Z,101287.88
2022-11-19T00:27:57.718Z,101292.31
2022-11-19T00:31:06.358Z,101296.81
2022-11-19T00:34:11.985Z,101290.59
2022-11-19T00:37:14.977Z,101285.34
2022-11-19T00:40:18.221Z,101292.38
2022-11-19T00:43:38.781Z,101300.38
2022-11-19T00:46:41.703Z,101295.06
2022-11-19T00:49:46.112Z,101294.19
2022-11-19T00:52:49.147Z,101292.38
2022-11-19T00:55:52.130Z,101296.81
2022-11-19T00:58:55.783Z,101296.81
2022-11-19T01:01:58.798Z,101297.63
2022-11-19T01:05:03.135Z,101299.47
2022-11-19T01:08:06.471Z,101308.28
2022-11-19T01:11:12.812Z,101316.25
2022-11-19T01:14:15.950Z,101317.16
2022-11-19T01:17:19.039Z,101318.09
2022-11-19T01:20:23.549Z,101318.94
2022-11-19T01:23:26.606Z,101321.59
2022-11-19T01:26:30.450Z,101327.81
2022-11-19T01:29:33.375Z,101329.56
2022-11-19T01:32:36.302Z,101333.09
2022-11-19T01:35:40.714Z,101336.59
2022-11-19T01:38:44.302Z,101334.81
2022-11-19T01:41:47.274Z,101331.22
2022-11-19T01:45:03.985Z,101328.56
2022-11-19T01:48:10.944Z,101330.34
2022-11-19T01:51:21.822Z,101327.69
2022-11-19T01:54:30.243Z,101325.91
2022-11-19T01:57:33.474Z,101319.72
2022-11-19T02:00:36.786Z,101315.25
2022-11-19T02:03:40.709Z,101310.78
2022-11-19T02:06:46.047Z,101324.09
2022-11-19T02:09:50.195Z,101326.75
2022-11-19T02:13:04.138Z,101320.50
2022-11-19T02:16:12.558Z,101321.41
2022-11-19T02:19:37.548Z,101324.97
2022-11-19T02:23:02.623Z,101316.09
2022-11-19T02:26:43.807Z,101325.84
2022-11-19T02:30:09.870Z,101319.56
2022-11-19T02:33:23.168Z,101317.84
2022-11-19T02:36:29.638Z,101322.28
2022-11-19T02:39:40.194Z,101324.09
2022-11-19T02:42:51.056Z,101327.69
2022-11-19T02:46:00.339Z,101325.03
2022-11-19T02:49:04.128Z,101318.84
2022-11-19T02:52:08.580Z,101325.03
2022-11-19T02:55:13.791Z,101330.34
2022-11-19T02:58:37.085Z,101332.94
2022-11-19T03:02:02.882Z,101330.34
2022-11-19T03:05:09.921Z,101335.69
2022-11-19T03:08:12.947Z,101329.47
2022-11-19T03:11:22.254Z,101329.47
2022-11-19T03:14:48.222Z,101324.16
2022-11-19T03:18:04.062Z,101325.94
2022-11-19T03:21:12.825Z,101319.78
2022-11-19T03:24:21.733Z,101318.03
2022-11-19T03:27:29.073Z,101319.78
2022-11-19T03:30:32.678Z,101320.63
2022-11-19T03:33:41.547Z,101323.25
2022-11-19T03:36:47.349Z,101315.28
2022-11-19T03:39:52.381Z,101312.63
2022-11-19T03:42:57.326Z,101313.50
2022-11-19T03:46:04.313Z,101318.84
2022-11-19T03:49:12.454Z,101321.50
2022-11-19T03:52:18.505Z,101330.44
2022-11-19T03:55:25.119Z,101328.59
2022-11-19T03:58:29.624Z,101325.94
2022-11-19T04:01:33.697Z,101333.00
2022-11-19T04:04:38.777Z,101336.56
2022-11-19T04:07:41.852Z,101332.94
2022-11-19T04:10:44.937Z,101336.47
2022-11-19T04:13:47.934Z,101324.88
2022-11-19T04:16:50.969Z,101330.22
2022-11-19T04:19:55.286Z,101337.28
2022-11-19T04:22:58.307Z,101334.56
2022-11-19T04:26:01.258Z,101330.09
2022-11-19T04:29:04.651Z,101330.09
2022-11-19T04:32:07.670Z,101328.31
2022-11-19T04:35:14.064Z,101327.38
2022-11-19T04:38:17.025Z,101319.47
2022-11-19T04:41:20.113Z,101316.78
2022-11-19T04:44:23.066Z,101314.13
2022-11-19T04:47:26.197Z,101314.13
2022-11-19T04:50:30.542Z,101318.53
2022-11-19T04:53:33.630Z,101319.47
2022-11-19T04:56:36.714Z,101312.38
2022-11-19T04:59:39.647Z,101308.00
2022-11-19T05:02:42.585Z,101316.91
2022-11-19T05:05:47.054Z,101311.56
2022-11-19T05:08:50.090Z,101304.53
2022-11-19T05:11:52.995Z,101299.28
2022-11-19T05:14:55.942Z,101298.41
2022-11-19T05:17:58.966Z,101303.72
2022-11-19T05:21:03.305Z,101300.25
2022-11-19T05:24:06.777Z,101306.50
2022-11-19T05:27:09.838Z,101295.84
2022-11-19T05:30:13.649Z,101300.31
2022-11-19T05:33:16.607Z,101303.84
2022-11-19T05:36:20.895Z,101296.81
2022-11-19T05:39:24.466Z,101289.66
2022-11-19T05:42:27.710Z,101287.94
2022-11-19T05:45:30.737Z,101279.06
2022-11-19T05:48:33.761Z,101279.06
2022-11-19T05:51:38.158Z,101281.75
2022-11-19T05:54:41.115Z,101281.75
2022-11-19T05:57:44.323Z,101279.06
2022-11-19T06:00:47.364Z,101273.75
2022-11-19T06:03:50.406Z,101273.75
2022-11-19T06:06:54.793Z,101272.84
2022-11-19T06:09:57.899Z,101279.88
2022-11-19T06:13:00.858Z,101263.91
2022-11-19T06:16:03.822Z,101269.19
2022-11-19T06:19:06.893Z,101266.53
2022-11-19T06:22:11.994Z,101274.44
2022-11-19T06:25:15.236Z,101274.56
2022-11-19T06:28:18.244Z,101275.44
2022-11-19T06:31:21.595Z,101285.16
2022-11-19T06:34:24.595Z,101276.31
2022-11-19T06:37:29.074Z,101270.09
2022-11-19T06:40:32.034Z,101272.78
2022-11-19T06:43:35.083Z,101280.69
2022-11-19T06:46:38.381Z,101282.44
2022-11-19T06:49:41.451Z,101285.09
2022-11-19T06:52:45.861Z,101278.81
2022-11-19T06:55:48.941Z,101269.13
2022-11-19T06:58:52.802Z,101277.09
2022-11-19T07:01:55.811Z,101276.22
2022-11-19T07:04:58.923Z,101272.69
2022-11-19T07:08:03.653Z,101264.72
2022-11-19T07:11:20.709Z,101266.47
2022-11-19T07:14:23.881Z,101262.84
2022-11-19T07:17:26.837Z,101262.91
2022-11-19T07:20:29.923Z,101255.81
2022-11-19T07:23:34.237Z,101246.94
2022-11-19T07:26:38.454Z,101246.03
2022-11-19T07:29:41.417Z,101241.56
2022-11-19T07:32:45.020Z,101241.56
2022-11-19T07:35:47.972Z,101241.56
2022-11-19T07:38:52.903Z,101245.16
2022-11-19T07:42:13.660Z,101236.31
2022-11-19T07:45:17.269Z,101222.19
2022-11-19T07:48:20.205Z,101232.75
2022-11-19T07:51:24.073Z,101232.75
2022-11-19T07:54:28.389Z,101219.44
2022-11-19T07:57:31.329Z,101230.09
2022-11-19T08:00:34.391Z,101223.97
2022-11-19T08:03:37.463Z,101220.41
2022-11-19T08:06:40.470Z,101223.06
2022-11-19T08:09:44.912Z,101216.78
2022-11-19T08:13:03.185Z,101216.78
2022-11-19T08:16:09.287Z,101214.19
2022-11-19T08:19:14.173Z,101207.34
2022-11-19T08:22:17.158Z,101204.06
2022-11-19T08:25:21.485Z,101205.16
2022-11-19T08:28:24.477Z,101207.16
2022-11-19T08:31:27.682Z,101201.84
2022-11-19T08:34:32.203Z,101191.75
2022-11-19T08:37:35.234Z,101194.75
2022-11-19T08:40:39.739Z,101191.56
2022-11-19T08:43:41.893Z,101191.03
2022-11-19T08:46:45.534Z,101192.44
2022-11-19T08:49:48.691Z,101179.56
2022-11-19T08:52:56.613Z,101183.72
2022-11-19T08:56:01.090Z,101183.53
2022-11-19T08:59:04.044Z,101178.03
2022-11-19T09:02:07.241Z,101178.00
2022-11-19T09:05:14.553Z,101169.91
2022-11-19T09:08:17.926Z,101166.38
2022-11-19T09:11:23.199Z,101174.34
2022-11-19T09:14:26.234Z,101174.34
2022-11-19T09:17:29.256Z,101178.78
2022-11-19T09:20:32.278Z,101175.25
2022-11-19T09:23:37.700Z,101173.50
2022-11-19T09:26:42.067Z,101173.59
2022-11-19T09:29:45.037Z,101165.66
2022-11-19T09:32:48.016Z,101164.00
2022-11-19T09:35:51.024Z,101163.19
2022-11-19T09:38:58.078Z,101167.81
2022-11-19T09:42:14.844Z,101174.13
2022-11-19T09:45:23.362Z,101169.78
2022-11-19T09:48:35.019Z,101174.41
2022-11-19T09:51:42.543Z,101159.41
2022-11-19T09:54:49.600Z,101165.72
2022-11-19T09:57:57.527Z,101156.94
2022-11-19T10:01:01.659Z,101157.06
2022-11-19T10:04:05.906Z,101152.69
2022-11-19T10:07:15.879Z,101147.47
2022-11-19T10:10:30.119Z,101145.84
2022-11-19T10:13:47.799Z,101146.75
2022-11-19T10:17:00.811Z,101145.97
2022-11-19T10:20:19.789Z,101144.22
2022-11-19T10:23:31.081Z,101139.03
2022-11-19T10:26:36.822Z,101138.16
2022-11-19T10:29:41.402Z,101134.63
2022-11-19T10:32:50.719Z,101131.97
2022-11-19T10:35:59.827Z,101134.69
2022-11-19T10:39:09.393Z,101131.97
2022-11-19T10:42:20.830Z,101133.78
2022-11-19T10:45:27.149Z,101120.47
2022-11-19T10:48:40.643Z,101119.53
2022-11-19T10:51:43.898Z,101108.88
2022-11-19T10:54:48.707Z,101108.88
2022-11-19T10:58:06.848Z,101103.56
2022-11-19T11:01:17.530Z,101098.22
2022-11-19T11:04:23.010Z,101101.75
2022-11-19T11:07:50.600Z,101094.69
2022-11-19T11:10:54.166Z,101095.56
2022-11-19T11:14:18.149Z,101095.56
2022-11-19T11:17:25.046Z,101086.66
2022-11-19T11:20:29.974Z,101083.03
2022-11-19T11:23:32.954Z,101079.47
2022-11-19T11:26:37.905Z,101077.63
2022-11-19T11:29:40.887Z,101073.16
2022-11-19T11:32:45.445Z,101082.94
2022-11-19T11:35:48.517Z,101080.25
2022-11-19T11:38:53.475Z,101074.06
2022-11-19T11:42:07.282Z,101083.84
2022-11-19T11:45:23.781Z,101080.31
2022-11-19T11:48:35.738Z,101084.78
2022-11-19T11:51:40.542Z,101079.47
2022-11-19T11:54:56.937Z,101076.81
2022-11-19T11:58:02.001Z,101075.94
2022-11-19T12:01:15.800Z,101065.28
2022-11-19T12:04:20.535Z,101067.94
2022-11-19T12:07:38.381Z,101062.63
2022-11-19T12:10:50.360Z,101062.63
2022-11-19T12:14:00.215Z,101060.81
2022-11-19T12:17:19.691Z,101060.81
2022-11-19T12:20:33.782Z,101057.38
2022-11-19T12:24:00.132Z,101055.53
2022-11-19T12:27:16.421Z,101056.41
2022-11-19T12:30:22.287Z,101056.50
2022-11-19T12:33:39.655Z,101058.28
2022-11-19T12:36:50.926Z,101057.38
2022-11-19T12:39:56.832Z,101055.53
2022-11-19T12:43:11.036Z,101050.22
2022-11-19T12:46:22.009Z,101040.44
2022-11-19T12:49:52.573Z,101042.19
2022-11-19T12:53:24.723Z,101042.19
2022-11-19T12:56:40.245Z,101045.69
2022-11-19T13:00:01.971Z,101044.84
2022-11-19T13:03:12.854Z,101048.34
2022-11-19T13:06:23.462Z,101046.56
2022-11-19T13:09:36.083Z,101042.97
2022-11-19T13:12:43.776Z,101046.56
2022-11-19T13:15:52.021Z,101043.84
2022-11-19T13:19:03.290Z,101037.66
2022-11-19T13:22:12.092Z,101030.53
2022-11-19T13:25:21.839Z,101026.94
2022-11-19T13:28:31.993Z,101026.06
2022-11-19T13:31:39.809Z,101027.78
2022-11-19T13:34:49.522Z,101019.88
2022-11-19T13:37:59.005Z,101033.19
2022-11-19T13:41:12.273Z,101024.34
2022-11-19T13:44:47.623Z,101018.13
2022-11-19T13:47:58.401Z,101011.94
2022-11-19T13:51:09.730Z,101017.28
2022-11-19T13:54:23.894Z,101014.59
2022-11-19T13:57:32.070Z,101015.56
2022-11-19T14:00:35.356Z,101020.00
2022-11-19T14:03:55.060Z,101020.88
2022-11-19T14:07:17.368Z,101016.41
2022-11-19T14:10:26.849Z,101015.56
2022-11-19T14:13:46.086Z,101016.41
2022-11-19T14:17:08.693Z,101023.53
2022-11-19T14:20:55.090Z,101015.59
2022-11-19T14:24:15.338Z,101013.81
2022-11-19T14:27:20.276Z,101017.44
2022-11-19T14:31:05.290Z,101019.13
2022-11-19T14:34:26.877Z,101020.94
2022-11-19T14:37:35.821Z,101021.81
2022-11-19T14:40:43.640Z,101020.00
2022-11-19T14:44:10.526Z,101022.59
2022-11-19T14:47:37.290Z,101022.59
2022-11-19T14:50:40.414Z,101023.47
2022-11-19T14:53:50.707Z,101021.69
2022-11-19T14:57:03.804Z,101018.13
2022-11-19T15:00:27.922Z,101016.34
2022-11-19T15:03:32.701Z,101021.69
2022-11-19T15:06:37.549Z,101019.88
2022-11-19T15:10:02.998Z,101015.41
2022-11-19T15:13:29.333Z,101016.34
2022-11-19T15:16:35.601Z,101017.22
2022-11-19T15:19:50.228Z,101004.75
2022-11-19T15:23:06.633Z,101013.59
2022-11-19T15:26:21.950Z,101010.06
2022-11-19T15:29:44.294Z,101003.91
2022-11-19T15:33:12.780Z,101008.28
2022-11-19T15:36:33.328Z,101006.56
2022-11-19T15:39:40.410Z,101008.34
2022-11-19T15:42:49.182Z,101003.03
2022-11-19T15:45:56.465Z,101003.03
2022-11-19T15:49:07.497Z,101003.94
2022-11-19T15:52:22.814Z,101005.75
2022-11-19T15:55:28.794Z,101001.28
2022-11-19T15:58:37.830Z,101000.41
2022-11-19T16:01:42.801Z,100995.97
2022-11-19T16:04:46.206Z,101006.63
2022-11-19T16:07:51.582Z,101009.28
2022-11-19T16:11:20.340Z,101013.72
2022-11-19T16:14:42.704Z,101010.22
2022-11-19T16:17:48.678Z,101003.09
2022-11-19T16:20:52.593Z,101005.81
2022-11-19T16:24:15.040Z,100995.16
2022-11-19T16:27:23.291Z,101003.16
2022-11-19T16:30:28.622Z,100998.78
2022-11-19T16:33:33.465Z,100991.63
2022-11-19T16:36:36.554Z,100995.16
2022-11-19T16:39:42.518Z,100993.38
2022-11-19T16:42:50.497Z,100995.16
2022-11-19T16:45:53.631Z,100995.16
2022-11-19T16:48:58.140Z,100987.19
2022-11-19T16:52:03.111Z,100999.56
2022-11-19T16:55:30.197Z,100987.19
2022-11-19T16:58:33.658Z,100988.06
2022-11-19T17:01:36.960Z,100996.03
2022-11-19T17:04:41.483Z,100993.38
2022-11-19T17:07:47.947Z,100989.75
2022-11-19T17:11:35.197Z,100999.56
2022-11-19T17:14:48.928Z,101001.28
2022-11-19T17:17:53.069Z,100997.72
2022-11-19T17:20:57.865Z,100989.72
2022-11-19T17:24:00.886Z,100990.59
2022-11-19T17:27:05.630Z,100994.97
2022-11-19T17:30:11.251Z,101003.91
2022-11-19T17:33:16.896Z,101003.91
2022-11-19T17:36:20.367Z,101000.38
2022-11-19T17:39:25.421Z,100997.72
2022-11-19T17:43:02.315Z,101003.91
2022-11-19T17:46:05.302Z,101008.28
2022-11-19T17:49:10.020Z,101003.03
2022-11-19T17:52:22.643Z,101003.91
2022-11-19T17:55:26.135Z,101003.03
2022-11-19T17:58:30.509Z,101009.22
2022-11-19T18:01:33.571Z,101011.03
2022-11-19T18:04:36.712Z,101014.56
2022-11-19T18:07:39.723Z,101016.34
2022-11-19T18:10:43.981Z,101014.59
2022-11-19T18:13:50.622Z,101013.72
2022-11-19T18:17:22.678Z,101018.13
2022-11-19T18:20:25.659Z,101010.22
2022-11-19T18:23:29.069Z,101020.88
2022-11-19T18:26:32.050Z,101020.88
2022-11-19T18:29:36.384Z,101020.88
2022-11-19T18:32:39.281Z,101018.22
2022-11-19T18:35:42.189Z,101016.47
2022-11-19T18:38:46.030Z,101019.06
2022-11-19T18:41:48.990Z,101014.59
2022-11-19T18:44:52.307Z,101018.22
2022-11-19T18:47:55.281Z,101021.72
2022-11-19T18:50:59.441Z,101026.22
2022-11-19T18:54:02.705Z,101024.47
2022-11-19T18:57:05.853Z,101024.47
2022-11-19T19:00:11.387Z,101018.25
2022-11-19T19:03:15.432Z,101027.13
2022-11-19T19:06:18.463Z,101021.81
2022-11-19T19:09:21.952Z,101020.09
2022-11-19T19:12:25.278Z,101022.75
2022-11-19T19:15:29.638Z,101020.94
2022-11-19T19:18:32.657Z,101020.00
2022-11-19T19:21:35.690Z,101020.88
2022-11-19T19:24:38.680Z,101013.81
2022-11-19T19:27:41.693Z,101026.22
2022-11-19T19:30:46.290Z,101027.91
2022-11-19T19:33:49.948Z,101026.22
2022-11-19T19:36:53.771Z,101027.03
2022-11-19T19:39:56.861Z,101029.66
2022-11-19T19:43:03.123Z,101030.59
2022-11-19T19:46:10.178Z,101022.59
2022-11-19T19:49:13.115Z,101034.13
2022-11-19T19:52:16.037Z,101036.69
2022-11-19T19:55:19.186Z,101038.44
2022-11-19T19:58:27.780Z,101038.44
2022-11-19T20:01:34.446Z,101034.84
2022-11-19T20:04:37.423Z,101040.16
2022-11-19T20:07:40.755Z,101041.97
2022-11-19T20:10:43.775Z,101045.47
2022-11-19T20:13:47.000Z,101049.97
2022-11-19T20:16:51.725Z,101051.69
2022-11-19T20:19:54.746Z,101051.69
2022-11-19T20:22:57.777Z,101053.44
2022-11-19T20:26:02.035Z,101052.56
2022-11-19T20:29:06.989Z,101054.34
2022-11-19T20:32:11.458Z,101056.09
2022-11-19T20:35:14.474Z,101057.88
2022-11-19T20:38:17.483Z,101055.22
2022-11-19T20:41:39.085Z,101060.47
2022-11-19T20:44:41.996Z,101059.59
2022-11-19T20:47:46.341Z,101057.88
2022-11-19T20:50:49.278Z,101063.13
2022-11-19T20:53:52.759Z,101058.75
2022-11-19T20:56:56.946Z,101059.59
2022-11-19T21:00:00.406Z,101058.75
2022-11-19T21:03:04.874Z,101056.00
2022-11-19T21:06:08.687Z,101063.22
2022-11-19T21:09:11.744Z,101058.75
2022-11-19T21:12:14.769Z,101063.22
2022-11-19T21:15:17.878Z,101057.00
2022-11-19T21:18:24.360Z,101065.88
2022-11-19T21:21:28.459Z,101057.88
2022-11-19T21:24:31.441Z,101064.09
2022-11-19T21:27:34.428Z,101063.22
2022-11-19T21:30:37.348Z,101071.19
2022-11-19T21:33:41.814Z,101063.22
2022-11-19T21:36:46.494Z,101057.88
2022-11-19T21:39:49.435Z,101050.81
2022-11-19T21:42:52.494Z,101062.34
2022-11-19T21:45:55.582Z,101050.81
2022-11-19T21:49:00.025Z,101056.13
2022-11-19T21:52:03.002Z,101052.56
2022-11-19T21:55:06.730Z,101051.69
2022-11-19T21:58:10.966Z,101056.94
2022-11-19T22:01:13.979Z,101052.56
2022-11-19T22:04:18.346Z,101048.09
2022-11-19T22:07:21.342Z,101051.69
2022-11-19T22:10:24.364Z,101044.56
2022-11-19T22:13:27.706Z,101047.22
2022-11-19T22:16:31.987Z,101044.56
2022-11-19T22:19:36.350Z,101040.16
2022-11-19T22:22:44.955Z,101036.56
2022-11-19T22:25:47.917Z,101034.84
2022-11-19T22:28:51.224Z,101032.97
2022-11-19T22:31:54.126Z,101045.34
2022-11-19T22:34:58.495Z,101040.03
2022-11-19T22:38:01.531Z,101034.72
2022-11-19T22:41:07.352Z,101028.44
2022-11-19T22:44:10.390Z,101031.97
2022-11-19T22:47:14.591Z,101028.44
2022-11-19T22:50:18.946Z,101021.31
2022-11-19T22:53:22.180Z,101028.44
2022-11-19T22:56:27.276Z,101030.19
2022-11-19T22:59:30.261Z,101025.78
2022-11-19T23:02:33.208Z,101021.31
2022-11-19T23:05:37.594Z,101022.19
2022-11-19T23:08:40.628Z,101027.50
2022-11-19T23:12:01.335Z,101030.19
2022-11-19T23:15:04.478Z,101023.06
2022-11-19T23:18:07.457Z,101026.63
2022-11-19T23:21:13.659Z,101030.19
2022-11-19T23:24:17.366Z,101027.50
2022-11-19T23:27:22.230Z,101024.84
2022-11-19T23:30:25.453Z,101017.78
2022-11-19T23:33:28.406Z,101024.06
2022-11-19T23:36:34.803Z,101014.28
2022-11-19T23:39:37.786Z,101024.06
2022-11-19T23:42:40.783Z,101016.06
2022-11-19T23:45:43.718Z,101017.84
2022-11-19T23:48:48.534Z,101016.06
2022-11-19T23:51:52.853Z,101022.31
2022-11-19T23:54:55.883Z,101016.97
2022-11-19T23:57:58.829Z,101016.06
